sensor_id;sensor_type;location;lat;lon;timestamp;P1;durP1;ratioP1;P2;durP2;ratioP2
17686;SDS011;8962;52.538;13.266;2022-12-13T00:02:10;29.08;;;14.65;;
17686;SDS011;8962;52.538;13.266;2022-12-13T00:04:37;28.42;;;14.63;;
17686;SDS011;8962;52.538;13.266;2022-12-13T00:07:04;26.55;;;14.23;;
17686;SDS011;8962;52.538;13.266;2022-12-13T00:09:31;30.55;;;14.07;;
17686;SDS011;8962;52.538;13.266;2022-12-13T00:11:58;29.80;;;14.82;;
17686;SDS011;8962;52.538;13.266;2022-12-13T00:14:25;26.23;;;13.73;;
17686;SDS011;8962;52.538;13.266;2022-12-13T00:16:54;27.30;;;14.98;;
17686;SDS011;8962;52.538;13.266;2022-12-13T00:19:21;27.23;;;14.05;;
17686;SDS011;8962;52.538;13.266;2022-12-13T00:21:49;30.00;;;14.32;;
17686;SDS011;8962;52.538;13.266;2022-12-13T00:24:16;28.00;;;14.07;;
17686;SDS011;8962;52.538;13.266;2022-12-13T00:26:44;26.08;;;14.10;;
17686;SDS011;8962;52.538;13.266;2022-12-13T00:29:11;29.15;;;14.07;;
17686;SDS011;8962;52.538;13.266;2022-12-13T00:31:38;26.38;;;14.68;;
17686;SDS011;8962;52.538;13.266;2022-12-13T00:34:07;28.38;;;14.50;;
17686;SDS011;8962;52.538;13.266;2022-12-13T00:36:34;26.88;;;13.75;;
17686;SDS011;8962;52.538;13.266;2022-12-13T00:39:02;27.67;;;14.10;;
17686;SDS011;8962;52.538;13.266;2022-12-13T00:41:29;27.30;;;13.98;;
17686;SDS011;8962;52.538;13.266;2022-12-13T00:43:58;27.88;;;14.40;;
17686;SDS011;8962;52.538;13.266;2022-12-13T00:46:26;26.67;;;13.38;;
17686;SDS011;8962;52.538;13.266;2022-12-13T00:48:57;24.10;;;12.68;;
17686;SDS011;8962;52.538;13.266;2022-12-13T00:51:27;24.00;;;12.73;;
17686;SDS011;8962;52.538;13.266;2022-12-13T00:53:56;24.48;;;12.82;;
17686;SDS011;8962;52.538;13.266;2022-12-13T00:56:24;25.98;;;13.20;;
17686;SDS011;8962;52.538;13.266;2022-12-13T00:58:53;27.50;;;13.73;;
17686;SDS011;8962;52.538;13.266;2022-12-13T01:01:21;26.90;;;13.73;;
17686;SDS011;8962;52.538;13.266;2022-12-13T01:03:50;25.42;;;13.40;;
17686;SDS011;8962;52.538;13.266;2022-12-13T01:06:19;26.40;;;13.63;;
17686;SDS011;8962;52.538;13.266;2022-12-13T01:08:50;23.15;;;12.55;;
17686;SDS011;8962;52.538;13.266;2022-12-13T01:11:17;24.88;;;13.23;;
17686;SDS011;8962;52.538;13.266;2022-12-13T01:13:45;26.15;;;13.30;;
17686;SDS011;8962;52.538;13.266;2022-12-13T01:16:12;26.30;;;13.48;;
17686;SDS011;8962;52.538;13.266;2022-12-13T01:18:40;30.70;;;14.73;;
17686;SDS011;8962;52.538;13.266;2022-12-13T01:21:09;27.50;;;14.27;;
17686;SDS011;8962;52.538;13.266;2022-12-13T01:23:38;30.50;;;15.18;;
17686;SDS011;8962;52.538;13.266;2022-12-13T01:26:07;29.75;;;15.60;;
17686;SDS011;8962;52.538;13.266;2022-12-13T01:28:36;30.60;;;14.57;;
17686;SDS011;8962;52.538;13.266;2022-12-13T01:31:05;29.27;;;14.60;;
17686;SDS011;8962;52.538;13.266;2022-12-13T01:33:33;29.40;;;13.90;;
17686;SDS011;8962;52.538;13.266;2022-12-13T01:36:02;29.42;;;14.77;;
17686;SDS011;8962;52.538;13.266;2022-12-13T01:38:30;26.77;;;13.82;;
17686;SDS011;8962;52.538;13.266;2022-12-13T01:40:58;28.73;;;13.57;;
17686;SDS011;8962;52.538;13.266;2022-12-13T01:43:30;24.33;;;12.18;;
17686;SDS011;8962;52.538;13.266;2022-12-13T01:46:17;23.75;;;12.93;;
17686;SDS011;8962;52.538;13.266;2022-12-13T01:48:45;25.25;;;12.55;;
17686;SDS011;8962;52.538;13.266;2022-12-13T01:51:16;26.67;;;13.15;;
17686;SDS011;8962;52.538;13.266;2022-12-13T01:53:46;23.40;;;11.75;;
17686;SDS011;8962;52.538;13.266;2022-12-13T01:56:17;25.67;;;12.23;;
17686;SDS011;8962;52.538;13.266;2022-12-13T01:58:50;22.48;;;11.93;;
17686;SDS011;8962;52.538;13.266;2022-12-13T02:01:21;23.60;;;12.25;;
17686;SDS011;8962;52.538;13.266;2022-12-13T02:03:49;25.58;;;12.10;;
17686;SDS011;8962;52.538;13.266;2022-12-13T02:06:17;25.70;;;13.18;;
17686;SDS011;8962;52.538;13.266;2022-12-13T02:08:47;27.70;;;13.25;;
17686;SDS011;8962;52.538;13.266;2022-12-13T02:11:15;22.70;;;12.73;;
17686;SDS011;8962;52.538;13.266;2022-12-13T02:13:42;26.67;;;13.10;;
17686;SDS011;8962;52.538;13.266;2022-12-13T02:16:13;24.13;;;12.82;;
17686;SDS011;8962;52.538;13.266;2022-12-13T02:18:54;29.67;;;14.57;;
17686;SDS011;8962;52.538;13.266;2022-12-13T02:21:31;28.95;;;14.35;;
17686;SDS011;8962;52.538;13.266;2022-12-13T02:27:31;28.38;;;13.82;;
17686;SDS011;8962;52.538;13.266;2022-12-13T02:30:17;28.05;;;14.90;;
17686;SDS011;8962;52.538;13.266;2022-12-13T02:32:55;26.95;;;13.73;;
17686;SDS011;8962;52.538;13.266;2022-12-13T02:35:34;28.73;;;14.35;;
17686;SDS011;8962;52.538;13.266;2022-12-13T02:38:10;32.10;;;15.30;;
17686;SDS011;8962;52.538;13.266;2022-12-13T02:40:42;27.88;;;15.10;;
17686;SDS011;8962;52.538;13.266;2022-12-13T02:43:13;28.23;;;14.10;;
17686;SDS011;8962;52.538;13.266;2022-12-13T02:45:47;29.15;;;14.43;;
17686;SDS011;8962;52.538;13.266;2022-12-13T02:48:17;26.98;;;13.23;;
17686;SDS011;8962;52.538;13.266;2022-12-13T02:50:50;26.08;;;12.98;;
17686;SDS011;8962;52.538;13.266;2022-12-13T02:53:19;28.70;;;14.55;;
17686;SDS011;8962;52.538;13.266;2022-12-13T02:55:48;27.75;;;14.40;;
17686;SDS011;8962;52.538;13.266;2022-12-13T02:58:16;27.60;;;13.88;;
17686;SDS011;8962;52.538;13.266;2022-12-13T03:00:52;27.60;;;13.27;;
17686;SDS011;8962;52.538;13.266;2022-12-13T03:03:35;31.98;;;15.77;;
17686;SDS011;8962;52.538;13.266;2022-12-13T03:06:12;31.23;;;15.15;;
17686;SDS011;8962;52.538;13.266;2022-12-13T03:08:58;31.58;;;15.50;;
17686;SDS011;8962;52.538;13.266;2022-12-13T03:11:40;32.30;;;15.05;;
17686;SDS011;8962;52.538;13.266;2022-12-13T03:14:34;31.73;;;15.40;;
17686;SDS011;8962;52.538;13.266;2022-12-13T03:17:06;30.98;;;14.95;;
17686;SDS011;8962;52.538;13.266;2022-12-13T03:19:35;28.63;;;14.73;;
17686;SDS011;8962;52.538;13.266;2022-12-13T03:22:04;31.20;;;15.80;;
17686;SDS011;8962;52.538;13.266;2022-12-13T03:24:32;32.53;;;15.27;;
17686;SDS011;8962;52.538;13.266;2022-12-13T03:26:59;26.70;;;13.95;;
17686;SDS011;8962;52.538;13.266;2022-12-13T03:29:27;28.92;;;14.32;;
17686;SDS011;8962;52.538;13.266;2022-12-13T03:31:54;29.52;;;15.32;;
17686;SDS011;8962;52.538;13.266;2022-12-13T03:34:23;30.80;;;14.68;;
17686;SDS011;8962;52.538;13.266;2022-12-13T03:36:50;28.20;;;13.77;;
17686;SDS011;8962;52.538;13.266;2022-12-13T03:39:17;24.83;;;13.00;;
17686;SDS011;8962;52.538;13.266;2022-12-13T03:41:45;25.45;;;14.00;;
17686;SDS011;8962;52.538;13.266;2022-12-13T03:44:12;27.65;;;14.95;;
17686;SDS011;8962;52.538;13.266;2022-12-13T03:46:39;26.30;;;13.98;;
17686;SDS011;8962;52.538;13.266;2022-12-13T03:49:06;26.80;;;14.02;;
17686;SDS011;8962;52.538;13.266;2022-12-13T03:51:35;29.80;;;14.50;;
17686;SDS011;8962;52.538;13.266;2022-12-13T03:54:02;23.95;;;12.85;;
17686;SDS011;8962;52.538;13.266;2022-12-13T03:56:29;25.48;;;13.38;;
17686;SDS011;8962;52.538;13.266;2022-12-13T03:58:56;27.75;;;13.32;;
17686;SDS011;8962;52.538;13.266;2022-12-13T04:01:26;26.52;;;13.50;;
17686;SDS011;8962;52.538;13.266;2022-12-13T04:03:53;25.60;;;12.48;;
17686;SDS011;8962;52.538;13.266;2022-12-13T04:06:20;25.48;;;13.20;;
17686;SDS011;8962;52.538;13.266;2022-12-13T04:08:49;27.45;;;13.55;;
17686;SDS011;8962;52.538;13.266;2022-12-13T04:11:18;23.27;;;12.38;;
17686;SDS011;8962;52.538;13.266;2022-12-13T04:14:02;26.40;;;13.13;;
17686;SDS011;8962;52.538;13.266;2022-12-13T04:16:30;27.85;;;13.65;;
17686;SDS011;8962;52.538;13.266;2022-12-13T04:18:57;24.15;;;12.80;;
17686;SDS011;8962;52.538;13.266;2022-12-13T04:21:24;25.25;;;13.10;;
17686;SDS011;8962;52.538;13.266;2022-12-13T04:23:53;24.50;;;13.13;;
17686;SDS011;8962;52.538;13.266;2022-12-13T04:26:20;25.92;;;12.93;;
17686;SDS011;8962;52.538;13.266;2022-12-13T04:28:47;24.67;;;12.60;;
17686;SDS011;8962;52.538;13.266;2022-12-13T04:31:14;20.63;;;12.27;;
17686;SDS011;8962;52.538;13.266;2022-12-13T04:33:41;22.63;;;11.93;;
17686;SDS011;8962;52.538;13.266;2022-12-13T04:36:09;24.17;;;12.05;;
17686;SDS011;8962;52.538;13.266;2022-12-13T04:38:44;23.65;;;12.45;;
17686;SDS011;8962;52.538;13.266;2022-12-13T04:41:14;24.45;;;11.85;;
17686;SDS011;8962;52.538;13.266;2022-12-13T04:43:43;24.52;;;12.85;;
17686;SDS011;8962;52.538;13.266;2022-12-13T04:46:15;22.50;;;12.00;;
17686;SDS011;8962;52.538;13.266;2022-12-13T04:48:42;26.00;;;13.38;;
17686;SDS011;8962;52.538;13.266;2022-12-13T04:51:09;21.50;;;11.82;;
17686;SDS011;8962;52.538;13.266;2022-12-13T04:53:37;23.23;;;12.43;;
17686;SDS011;8962;52.538;13.266;2022-12-13T04:56:06;22.55;;;12.20;;
17686;SDS011;8962;52.538;13.266;2022-12-13T04:58:35;25.20;;;13.60;;
17686;SDS011;8962;52.538;13.266;2022-12-13T05:01:04;25.88;;;13.88;;
17686;SDS011;8962;52.538;13.266;2022-12-13T05:03:32;27.85;;;14.70;;
17686;SDS011;8962;52.538;13.266;2022-12-13T05:06:03;25.55;;;13.63;;
17686;SDS011;8962;52.538;13.266;2022-12-13T05:08:30;26.92;;;13.73;;
17686;SDS011;8962;52.538;13.266;2022-12-13T05:10:57;25.15;;;13.20;;
17686;SDS011;8962;52.538;13.266;2022-12-13T05:13:24;26.40;;;14.30;;
17686;SDS011;8962;52.538;13.266;2022-12-13T05:15:55;27.17;;;14.13;;
17686;SDS011;8962;52.538;13.266;2022-12-13T05:18:22;29.98;;;14.10;;
17686;SDS011;8962;52.538;13.266;2022-12-13T05:20:49;26.23;;;13.90;;
17686;SDS011;8962;52.538;13.266;2022-12-13T05:23:16;26.55;;;13.70;;
17686;SDS011;8962;52.538;13.266;2022-12-13T05:25:44;26.77;;;14.80;;
17686;SDS011;8962;52.538;13.266;2022-12-13T05:28:11;30.58;;;14.15;;
17686;SDS011;8962;52.538;13.266;2022-12-13T05:30:39;28.48;;;14.80;;
17686;SDS011;8962;52.538;13.266;2022-12-13T05:33:08;26.05;;;14.45;;
17686;SDS011;8962;52.538;13.266;2022-12-13T05:35:36;28.58;;;15.25;;
17686;SDS011;8962;52.538;13.266;2022-12-13T05:38:03;30.60;;;15.18;;
17686;SDS011;8962;52.538;13.266;2022-12-13T05:40:31;28.77;;;14.93;;
17686;SDS011;8962;52.538;13.266;2022-12-13T05:43:00;31.02;;;14.45;;
17686;SDS011;8962;52.538;13.266;2022-12-13T05:45:27;27.40;;;15.05;;
17686;SDS011;8962;52.538;13.266;2022-12-13T05:47:55;30.00;;;14.57;;
17686;SDS011;8962;52.538;13.266;2022-12-13T05:50:24;27.75;;;15.40;;
17686;SDS011;8962;52.538;13.266;2022-12-13T05:52:53;29.33;;;15.02;;
17686;SDS011;8962;52.538;13.266;2022-12-13T05:55:20;26.73;;;14.88;;
17686;SDS011;8962;52.538;13.266;2022-12-13T05:57:47;29.65;;;15.82;;
17686;SDS011;8962;52.538;13.266;2022-12-13T06:00:14;31.50;;;15.82;;
17686;SDS011;8962;52.538;13.266;2022-12-13T06:02:42;30.33;;;15.00;;
17686;SDS011;8962;52.538;13.266;2022-12-13T06:05:14;29.95;;;16.08;;
17686;SDS011;8962;52.538;13.266;2022-12-13T06:07:42;31.38;;;15.98;;
17686;SDS011;8962;52.538;13.266;2022-12-13T06:10:09;31.60;;;15.38;;
17686;SDS011;8962;52.538;13.266;2022-12-13T06:12:37;30.13;;;16.30;;
17686;SDS011;8962;52.538;13.266;2022-12-13T06:15:05;30.38;;;16.15;;
17686;SDS011;8962;52.538;13.266;2022-12-13T06:17:33;31.83;;;16.60;;
17686;SDS011;8962;52.538;13.266;2022-12-13T06:20:02;31.08;;;17.17;;
17686;SDS011;8962;52.538;13.266;2022-12-13T06:22:32;29.70;;;15.52;;
17686;SDS011;8962;52.538;13.266;2022-12-13T06:25:00;35.60;;;16.92;;
17686;SDS011;8962;52.538;13.266;2022-12-13T06:27:28;30.13;;;15.60;;
17686;SDS011;8962;52.538;13.266;2022-12-13T06:29:55;30.17;;;15.98;;
17686;SDS011;8962;52.538;13.266;2022-12-13T06:32:22;31.67;;;16.17;;
17686;SDS011;8962;52.538;13.266;2022-12-13T06:34:49;30.15;;;16.33;;
17686;SDS011;8962;52.538;13.266;2022-12-13T06:37:17;31.58;;;16.85;;
17686;SDS011;8962;52.538;13.266;2022-12-13T06:39:47;31.10;;;15.55;;
17686;SDS011;8962;52.538;13.266;2022-12-13T06:42:16;33.70;;;16.58;;
17686;SDS011;8962;52.538;13.266;2022-12-13T06:44:44;32.00;;;16.60;;
17686;SDS011;8962;52.538;13.266;2022-12-13T06:47:11;32.45;;;16.88;;
17686;SDS011;8962;52.538;13.266;2022-12-13T06:49:39;36.70;;;18.25;;
17686;SDS011;8962;52.538;13.266;2022-12-13T06:52:08;35.58;;;18.67;;
17686;SDS011;8962;52.538;13.266;2022-12-13T06:54:36;34.58;;;17.40;;
17686;SDS011;8962;52.538;13.266;2022-12-13T06:57:03;30.75;;;16.77;;
17686;SDS011;8962;52.538;13.266;2022-12-13T06:59:31;40.15;;;19.45;;
17686;SDS011;8962;52.538;13.266;2022-12-13T07:01:59;37.30;;;18.63;;
17686;SDS011;8962;52.538;13.266;2022-12-13T07:04:26;36.97;;;18.73;;
17686;SDS011;8962;52.538;13.266;2022-12-13T07:06:53;37.45;;;19.00;;
17686;SDS011;8962;52.538;13.266;2022-12-13T07:09:20;37.67;;;18.90;;
17686;SDS011;8962;52.538;13.266;2022-12-13T07:11:47;45.33;;;19.77;;
17686;SDS011;8962;52.538;13.266;2022-12-13T07:14:14;41.50;;;19.60;;
17686;SDS011;8962;52.538;13.266;2022-12-13T07:16:43;37.85;;;19.48;;
17686;SDS011;8962;52.538;13.266;2022-12-13T07:19:11;37.83;;;18.10;;
17686;SDS011;8962;52.538;13.266;2022-12-13T07:21:38;39.35;;;19.17;;
17686;SDS011;8962;52.538;13.266;2022-12-13T07:24:05;42.40;;;19.00;;
17686;SDS011;8962;52.538;13.266;2022-12-13T07:26:33;36.03;;;18.48;;
17686;SDS011;8962;52.538;13.266;2022-12-13T07:29:02;41.28;;;19.65;;
17686;SDS011;8962;52.538;13.266;2022-12-13T07:31:30;41.67;;;19.73;;
17686;SDS011;8962;52.538;13.266;2022-12-13T07:34:01;41.40;;;20.17;;
17686;SDS011;8962;52.538;13.266;2022-12-13T07:36:29;37.90;;;19.42;;
17686;SDS011;8962;52.538;13.266;2022-12-13T07:38:56;38.15;;;18.65;;
17686;SDS011;8962;52.538;13.266;2022-12-13T07:41:24;41.60;;;19.33;;
17686;SDS011;8962;52.538;13.266;2022-12-13T07:43:53;38.50;;;19.35;;
17686;SDS011;8962;52.538;13.266;2022-12-13T07:46:21;37.63;;;18.85;;
17686;SDS011;8962;52.538;13.266;2022-12-13T07:48:49;36.95;;;18.55;;
17686;SDS011;8962;52.538;13.266;2022-12-13T07:51:21;37.40;;;18.67;;
17686;SDS011;8962;52.538;13.266;2022-12-13T07:53:48;38.22;;;19.00;;
17686;SDS011;8962;52.538;13.266;2022-12-13T07:56:17;40.85;;;19.70;;
17686;SDS011;8962;52.538;13.266;2022-12-13T07:58:44;39.17;;;19.73;;
17686;SDS011;8962;52.538;13.266;2022-12-13T08:01:12;38.95;;;20.23;;
17686;SDS011;8962;52.538;13.266;2022-12-13T08:03:40;40.10;;;19.92;;
17686;SDS011;8962;52.538;13.266;2022-12-13T08:06:08;40.13;;;19.60;;
17686;SDS011;8962;52.538;13.266;2022-12-13T08:08:39;41.78;;;19.85;;
17686;SDS011;8962;52.538;13.266;2022-12-13T08:11:06;40.28;;;19.40;;
17686;SDS011;8962;52.538;13.266;2022-12-13T08:13:36;39.55;;;20.27;;
17686;SDS011;8962;52.538;13.266;2022-12-13T08:16:06;42.22;;;19.83;;
17686;SDS011;8962;52.538;13.266;2022-12-13T08:18:35;40.38;;;19.80;;
17686;SDS011;8962;52.538;13.266;2022-12-13T08:21:04;40.38;;;19.55;;
17686;SDS011;8962;52.538;13.266;2022-12-13T08:23:34;41.22;;;19.23;;
17686;SDS011;8962;52.538;13.266;2022-12-13T08:26:04;39.25;;;19.25;;
17686;SDS011;8962;52.538;13.266;2022-12-13T08:28:32;42.80;;;20.13;;
17686;SDS011;8962;52.538;13.266;2022-12-13T08:31:02;38.97;;;20.05;;
17686;SDS011;8962;52.538;13.266;2022-12-13T08:33:31;40.72;;;19.85;;
17686;SDS011;8962;52.538;13.266;2022-12-13T08:36:06;42.38;;;21.10;;
17686;SDS011;8962;52.538;13.266;2022-12-13T08:38:34;39.10;;;20.75;;
17686;SDS011;8962;52.538;13.266;2022-12-13T08:41:03;41.85;;;20.60;;
17686;SDS011;8962;52.538;13.266;2022-12-13T08:43:31;37.55;;;19.23;;
17686;SDS011;8962;52.538;13.266;2022-12-13T08:45:58;38.47;;;19.35;;
17686;SDS011;8962;52.538;13.266;2022-12-13T08:48:25;41.75;;;19.90;;
17686;SDS011;8962;52.538;13.266;2022-12-13T08:50:53;39.45;;;20.17;;
17686;SDS011;8962;52.538;13.266;2022-12-13T08:53:21;41.33;;;20.58;;
17686;SDS011;8962;52.538;13.266;2022-12-13T08:55:48;39.85;;;20.10;;
17686;SDS011;8962;52.538;13.266;2022-12-13T08:58:17;41.20;;;19.40;;
17686;SDS011;8962;52.538;13.266;2022-12-13T09:00:45;39.53;;;19.40;;
17686;SDS011;8962;52.538;13.266;2022-12-13T09:03:12;39.90;;;19.23;;
17686;SDS011;8962;52.538;13.266;2022-12-13T09:05:41;44.38;;;19.08;;
17686;SDS011;8962;52.538;13.266;2022-12-13T09:08:08;37.60;;;19.10;;
17686;SDS011;8962;52.538;13.266;2022-12-13T09:10:36;36.55;;;18.67;;
17686;SDS011;8962;52.538;13.266;2022-12-13T09:13:03;35.60;;;18.88;;
17686;SDS011;8962;52.538;13.266;2022-12-13T09:15:32;36.80;;;18.75;;
17686;SDS011;8962;52.538;13.266;2022-12-13T09:18:01;33.10;;;18.38;;
17686;SDS011;8962;52.538;13.266;2022-12-13T09:20:29;35.90;;;18.88;;
17686;SDS011;8962;52.538;13.266;2022-12-13T09:22:56;39.65;;;19.95;;
17686;SDS011;8962;52.538;13.266;2022-12-13T09:25:23;35.55;;;18.98;;
17686;SDS011;8962;52.538;13.266;2022-12-13T09:27:51;36.47;;;18.83;;
17686;SDS011;8962;52.538;13.266;2022-12-13T09:30:19;37.03;;;18.38;;
17686;SDS011;8962;52.538;13.266;2022-12-13T09:32:48;34.60;;;18.20;;
17686;SDS011;8962;52.538;13.266;2022-12-13T09:35:15;35.05;;;17.52;;
17686;SDS011;8962;52.538;13.266;2022-12-13T09:37:42;33.30;;;18.05;;
17686;SDS011;8962;52.538;13.266;2022-12-13T09:40:10;35.58;;;18.13;;
17686;SDS011;8962;52.538;13.266;2022-12-13T09:42:43;37.30;;;18.95;;
17686;SDS011;8962;52.538;13.266;2022-12-13T09:45:17;38.80;;;18.73;;
17686;SDS011;8962;52.538;13.266;2022-12-13T09:47:44;37.03;;;18.88;;
17686;SDS011;8962;52.538;13.266;2022-12-13T09:50:21;33.72;;;18.58;;
17686;SDS011;8962;52.538;13.266;2022-12-13T09:52:52;34.70;;;18.88;;
17686;SDS011;8962;52.538;13.266;2022-12-13T09:55:21;36.50;;;18.33;;
17686;SDS011;8962;52.538;13.266;2022-12-13T09:57:50;35.33;;;18.48;;
17686;SDS011;8962;52.538;13.266;2022-12-13T10:00:24;35.65;;;19.33;;
17686;SDS011;8962;52.538;13.266;2022-12-13T10:02:54;33.20;;;18.25;;
17686;SDS011;8962;52.538;13.266;2022-12-13T10:05:27;37.08;;;17.88;;
17686;SDS011;8962;52.538;13.266;2022-12-13T10:07:57;37.67;;;18.27;;
17686;SDS011;8962;52.538;13.266;2022-12-13T10:10:26;39.45;;;18.45;;
17686;SDS011;8962;52.538;13.266;2022-12-13T10:12:54;36.40;;;17.92;;
17686;SDS011;8962;52.538;13.266;2022-12-13T10:15:28;39.90;;;19.30;;
17686;SDS011;8962;52.538;13.266;2022-12-13T10:17:58;35.45;;;19.00;;
17686;SDS011;8962;52.538;13.266;2022-12-13T10:20:32;35.78;;;17.67;;
17686;SDS011;8962;52.538;13.266;2022-12-13T10:23:00;31.60;;;17.52;;
17686;SDS011;8962;52.538;13.266;2022-12-13T10:28:15;33.95;;;18.10;;
17686;SDS011;8962;52.538;13.266;2022-12-13T10:30:46;35.58;;;17.27;;
17686;SDS011;8962;52.538;13.266;2022-12-13T10:33:20;35.65;;;18.40;;
17686;SDS011;8962;52.538;13.266;2022-12-13T10:39:02;36.67;;;17.42;;
17686;SDS011;8962;52.538;13.266;2022-12-13T10:41:34;28.58;;;15.68;;
17686;SDS011;8962;52.538;13.266;2022-12-13T10:44:08;31.58;;;15.82;;
17686;SDS011;8962;52.538;13.266;2022-12-13T10:46:48;27.77;;;14.73;;
17686;SDS011;8962;52.538;13.266;2022-12-13T10:49:29;28.13;;;14.90;;
17686;SDS011;8962;52.538;13.266;2022-12-13T10:52:06;33.13;;;15.55;;
17686;SDS011;8962;52.538;13.266;2022-12-13T10:54:46;29.15;;;14.38;;
17686;SDS011;8962;52.538;13.266;2022-12-13T10:57:16;30.70;;;14.75;;
17686;SDS011;8962;52.538;13.266;2022-12-13T10:59:45;26.75;;;13.82;;
17686;SDS011;8962;52.538;13.266;2022-12-13T11:02:29;27.55;;;15.40;;
17686;SDS011;8962;52.538;13.266;2022-12-13T11:05:21;28.30;;;15.32;;
17686;SDS011;8962;52.538;13.266;2022-12-13T11:07:52;31.67;;;15.45;;
17686;SDS011;8962;52.538;13.266;2022-12-13T11:10:22;30.33;;;14.50;;
17686;SDS011;8962;52.538;13.266;2022-12-13T11:12:52;28.45;;;14.95;;
17686;SDS011;8962;52.538;13.266;2022-12-13T11:15:25;29.27;;;13.73;;
17686;SDS011;8962;52.538;13.266;2022-12-13T11:17:57;27.85;;;14.10;;
17686;SDS011;8962;52.538;13.266;2022-12-13T11:20:26;26.33;;;13.75;;
17686;SDS011;8962;52.538;13.266;2022-12-13T11:22:59;25.88;;;13.70;;
17686;SDS011;8962;52.538;13.266;2022-12-13T11:25:32;24.35;;;13.75;;
17686;SDS011;8962;52.538;13.266;2022-12-13T11:28:11;31.85;;;13.68;;
17686;SDS011;8962;52.538;13.266;2022-12-13T11:30:54;29.40;;;13.38;;
17686;SDS011;8962;52.538;13.266;2022-12-13T11:33:31;28.27;;;13.38;;
17686;SDS011;8962;52.538;13.266;2022-12-13T11:36:07;27.55;;;13.32;;
17686;SDS011;8962;52.538;13.266;2022-12-13T11:38:50;39.10;;;14.93;;
17686;SDS011;8962;52.538;13.266;2022-12-13T11:41:28;25.42;;;13.13;;
17686;SDS011;8962;52.538;13.266;2022-12-13T11:44:03;23.48;;;12.70;;
17686;SDS011;8962;52.538;13.266;2022-12-13T11:46:39;22.48;;;12.95;;
17686;SDS011;8962;52.538;13.266;2022-12-13T11:49:12;24.13;;;13.48;;
17686;SDS011;8962;52.538;13.266;2022-12-13T11:51:45;29.42;;;13.82;;
17686;SDS011;8962;52.538;13.266;2022-12-13T11:54:19;28.00;;;14.60;;
17686;SDS011;8962;52.538;13.266;2022-12-13T11:56:53;31.70;;;13.98;;
17686;SDS011;8962;52.538;13.266;2022-12-13T11:59:30;29.48;;;14.60;;
17686;SDS011;8962;52.538;13.266;2022-12-13T12:02:04;27.08;;;14.38;;
17686;SDS011;8962;52.538;13.266;2022-12-13T12:04:42;30.15;;;14.18;;
17686;SDS011;8962;52.538;13.266;2022-12-13T12:07:15;25.92;;;14.32;;
17686;SDS011;8962;52.538;13.266;2022-12-13T12:09:48;26.85;;;14.93;;
17686;SDS011;8962;52.538;13.266;2022-12-13T12:12:23;25.20;;;14.05;;
17686;SDS011;8962;52.538;13.266;2022-12-13T12:14:55;37.95;;;18.13;;
17686;SDS011;8962;52.538;13.266;2022-12-13T12:17:26;30.58;;;14.82;;
17686;SDS011;8962;52.538;13.266;2022-12-13T12:19:54;28.23;;;15.05;;
17686;SDS011;8962;52.538;13.266;2022-12-13T12:22:26;30.63;;;14.77;;
17686;SDS011;8962;52.538;13.266;2022-12-13T12:25:10;28.55;;;14.93;;
17686;SDS011;8962;52.538;13.266;2022-12-13T12:27:50;33.17;;;15.65;;
17686;SDS011;8962;52.538;13.266;2022-12-13T12:30:31;27.70;;;14.52;;
17686;SDS011;8962;52.538;13.266;2022-12-13T12:33:12;28.67;;;12.90;;
17686;SDS011;8962;52.538;13.266;2022-12-13T12:35:57;25.95;;;13.15;;
17686;SDS011;8962;52.538;13.266;2022-12-13T12:38:43;27.98;;;13.07;;
17686;SDS011;8962;52.538;13.266;2022-12-13T12:44:22;26.73;;;14.13;;
17686;SDS011;8962;52.538;13.266;2022-12-13T12:47:09;26.45;;;14.05;;
17686;SDS011;8962;52.538;13.266;2022-12-13T12:50:08;30.20;;;13.45;;
17686;SDS011;8962;52.538;13.266;2022-12-13T12:52:55;24.23;;;12.95;;
17686;SDS011;8962;52.538;13.266;2022-12-13T12:55:32;27.75;;;14.93;;
17686;SDS011;8962;52.538;13.266;2022-12-13T12:58:12;26.60;;;12.82;;
17686;SDS011;8962;52.538;13.266;2022-12-13T13:01:56;26.80;;;13.52;;
17686;SDS011;8962;52.538;13.266;2022-12-13T13:04:04;29.20;;;13.90;;
17686;SDS011;8962;52.538;13.266;2022-12-13T13:06:35;29.65;;;13.13;;
17686;SDS011;8962;52.538;13.266;2022-12-13T13:09:06;25.27;;;13.35;;
17686;SDS011;8962;52.538;13.266;2022-12-13T13:11:36;37.53;;;19.90;;
17686;SDS011;8962;52.538;13.266;2022-12-13T13:16:55;38.05;;;16.15;;
17686;SDS011;8962;52.538;13.266;2022-12-13T13:22:25;25.90;;;14.32;;
17686;SDS011;8962;52.538;13.266;2022-12-13T13:24:59;25.65;;;14.07;;
17686;SDS011;8962;52.538;13.266;2022-12-13T13:27:41;27.52;;;13.88;;
17686;SDS011;8962;52.538;13.266;2022-12-13T13:30:16;22.98;;;13.45;;
17686;SDS011;8962;52.538;13.266;2022-12-13T13:32:47;24.73;;;13.30;;
17686;SDS011;8962;52.538;13.266;2022-12-13T13:47:12;25.40;;;13.48;;
17686;SDS011;8962;52.538;13.266;2022-12-13T13:49:46;23.80;;;13.85;;
17686;SDS011;8962;52.538;13.266;2022-12-13T13:52:24;26.40;;;14.00;;
17686;SDS011;8962;52.538;13.266;2022-12-13T13:58:14;24.98;;;13.10;;
17686;SDS011;8962;52.538;13.266;2022-12-13T14:01:16;24.35;;;12.73;;
17686;SDS011;8962;52.538;13.266;2022-12-13T14:04:44;24.92;;;13.13;;
17686;SDS011;8962;52.538;13.266;2022-12-13T14:10:43;25.17;;;13.20;;
17686;SDS011;8962;52.538;13.266;2022-12-13T14:13:37;28.23;;;14.32;;
17686;SDS011;8962;52.538;13.266;2022-12-13T14:23:13;29.15;;;13.27;;
17686;SDS011;8962;52.538;13.266;2022-12-13T14:25:51;27.05;;;13.55;;
17686;SDS011;8962;52.538;13.266;2022-12-13T14:28:46;24.77;;;13.30;;
17686;SDS011;8962;52.538;13.266;2022-12-13T14:31:21;24.55;;;13.45;;
17686;SDS011;8962;52.538;13.266;2022-12-13T14:33:50;26.42;;;13.10;;
17686;SDS011;8962;52.538;13.266;2022-12-13T14:36:25;20.30;;;11.80;;
17686;SDS011;8962;52.538;13.266;2022-12-13T14:39:03;25.35;;;13.48;;
17686;SDS011;8962;52.538;13.266;2022-12-13T14:41:43;25.92;;;12.95;;
17686;SDS011;8962;52.538;13.266;2022-12-13T14:44:15;25.10;;;12.75;;
17686;SDS011;8962;52.538;13.266;2022-12-13T14:46:47;22.83;;;12.82;;
17686;SDS011;8962;52.538;13.266;2022-12-13T14:49:19;21.40;;;12.57;;
17686;SDS011;8962;52.538;13.266;2022-12-13T14:51:53;21.60;;;12.45;;
17686;SDS011;8962;52.538;13.266;2022-12-13T14:54:29;21.80;;;12.60;;
17686;SDS011;8962;52.538;13.266;2022-12-13T14:57:02;23.08;;;12.73;;
17686;SDS011;8962;52.538;13.266;2022-12-13T14:59:31;20.25;;;12.13;;
17686;SDS011;8962;52.538;13.266;2022-12-13T15:01:59;23.35;;;12.25;;
17686;SDS011;8962;52.538;13.266;2022-12-13T15:04:28;23.13;;;11.77;;
17686;SDS011;8962;52.538;13.266;2022-12-13T15:07:01;21.55;;;12.43;;
17686;SDS011;8962;52.538;13.266;2022-12-13T15:09:35;24.10;;;12.52;;
17686;SDS011;8962;52.538;13.266;2022-12-13T15:12:08;23.27;;;11.93;;
17686;SDS011;8962;52.538;13.266;2022-12-13T15:14:38;23.73;;;11.35;;
17686;SDS011;8962;52.538;13.266;2022-12-13T15:17:20;22.50;;;11.60;;
17686;SDS011;8962;52.538;13.266;2022-12-13T15:19:55;25.20;;;12.23;;
17686;SDS011;8962;52.538;13.266;2022-12-13T15:22:28;23.35;;;12.82;;
17686;SDS011;8962;52.538;13.266;2022-12-13T15:25:12;21.27;;;11.73;;
17686;SDS011;8962;52.538;13.266;2022-12-13T15:27:45;23.95;;;12.40;;
17686;SDS011;8962;52.538;13.266;2022-12-13T15:30:15;22.95;;;12.70;;